Time;durP1;ratioP1;P1;durP2;ratioP2;P2;SDS_P1;SDS_P2;PMS_P1;PMS_P2;Temp;Humidity;BMP_temperature;BMP_pressure;BME280_temperature;BME280_humidity;BME280_pressure;Samples;Min_cycle;Max_cycle;Signal;HPM_P1;HPM_P2
2023/02/10 00:02:22;;;;;;;11.80;8.27;;;9.40;77.20;;;;;;6104538;23;20002;-86
2023/02/10 00:04:48;;;;;;;11.73;8.65;;;9.40;77.20;;;;;;6103789;23;20026;-86
2023/02/10 00:07:14;;;;;;;11.60;8.32;;;9.50;77.30;;;;;;6127456;23;20017;-86
2023/02/10 00:09:39;;;;;;;12.18;8.45;;;9.40;77.20;;;;;;6103647;23;20336;-87
2023/02/10 00:12:07;;;;;;;11.50;8.23;;;9.40;77.20;;;;;;6128153;23;20042;-86
2023/02/10 00:14:33;;;;;;;12.65;8.52;;;9.50;77.20;;;;;;6102517;23;20375;-87
2023/02/10 00:16:59;;;;;;;13.25;9.00;;;9.50;77.20;;;;;;6101807;23;20085;-87
2023/02/10 00:19:26;;;;;;;12.40;8.23;;;9.40;77.20;;;;;;6100581;23;20424;-86
2023/02/10 00:21:52;;;;;;;12.07;8.23;;;9.50;77.20;;;;;;6128208;23;20009;-86
2023/02/10 00:24:17;;;;;;;12.70;8.73;;;9.40;77.10;;;;;;6098481;23;20018;-86
2023/02/10 00:26:43;;;;;;;11.10;8.25;;;9.50;77.20;;;;;;6096135;23;20006;-86
2023/02/10 00:29:09;;;;;;;12.02;8.20;;;9.40;77.20;;;;;;6095934;23;20014;-87
2023/02/10 00:31:34;;;;;;;12.52;8.85;;;9.40;77.20;;;;;;6096748;23;20037;-87
2023/02/10 00:34:00;;;;;;;11.90;8.38;;;9.40;77.20;;;;;;6097073;23;20459;-87
2023/02/10 00:36:25;;;;;;;12.02;8.45;;;9.40;77.20;;;;;;6095498;23;20036;-86
2023/02/10 00:38:51;;;;;;;12.05;8.43;;;9.40;77.20;;;;;;6096117;23;20016;-87
2023/02/10 00:41:19;;;;;;;12.77;8.73;;;9.40;77.10;;;;;;6099007;23;20101;-87
2023/02/10 00:43:45;;;;;;;12.90;9.30;;;9.40;77.20;;;;;;6100343;23;20005;-85
2023/02/10 00:46:12;;;;;;;11.20;8.18;;;9.40;77.70;;;;;;6125924;23;20389;-86
2023/02/10 00:48:38;;;;;;;12.50;8.77;;;9.40;77.20;;;;;;6099548;23;20051;-86
2023/02/10 00:51:04;;;;;;;11.82;8.85;;;9.40;77.20;;;;;;6125128;23;20432;-86
2023/02/10 00:53:30;;;;;;;12.18;8.63;;;9.40;77.30;;;;;;6095993;23;20006;-85
2023/02/10 00:55:55;;;;;;;12.05;8.88;;;9.40;77.30;;;;;;6098188;23;20336;-86
2023/02/10 00:58:21;;;;;;;11.63;8.35;;;9.40;77.30;;;;;;6096898;23;20363;-87
2023/02/10 01:00:47;;;;;;;12.07;8.85;;;9.40;77.30;;;;;;6097361;23;20038;-86
2023/02/10 01:03:13;;;;;;;11.75;8.40;;;9.40;77.30;;;;;;6096696;23;20013;-87
2023/02/10 01:05:38;;;;;;;13.57;9.02;;;9.30;77.30;;;;;;6097023;23;20006;-87
2023/02/10 01:08:04;;;;;;;15.45;8.93;;;9.40;77.30;;;;;;6123733;23;20010;-87
2023/02/10 01:10:34;;;;;;;12.25;8.25;;;9.40;77.30;;;;;;6123934;23;20010;-86
2023/02/10 01:13:00;;;;;;;12.52;8.55;;;9.40;77.40;;;;;;6099665;23;20010;-86
2023/02/10 01:15:26;;;;;;;11.43;8.40;;;9.40;77.40;;;;;;6098937;23;20341;-86
2023/02/10 01:17:52;;;;;;;12.95;8.32;;;9.40;77.40;;;;;;6124320;23;20002;-86
2023/02/10 01:20:17;;;;;;;11.25;8.07;;;9.40;77.40;;;;;;6098485;23;20040;-86
2023/02/10 01:22:43;;;;;;;11.90;8.73;;;9.40;77.40;;;;;;6123465;23;20017;-86
2023/02/10 01:25:08;;;;;;;12.27;9.40;;;9.40;77.40;;;;;;6123706;23;20041;-86
2023/02/10 01:27:34;;;;;;;12.60;9.30;;;9.40;77.30;;;;;;6098064;23;20041;-86
2023/02/10 01:29:59;;;;;;;11.60;8.57;;;9.40;77.40;;;;;;6098493;23;20089;-86
2023/02/10 01:32:25;;;;;;;12.48;9.27;;;9.40;77.40;;;;;;6099221;23;20010;-85
2023/02/10 01:34:50;;;;;;;12.32;8.88;;;9.40;77.40;;;;;;6098692;23;20012;-85
2023/02/10 01:37:16;;;;;;;12.25;8.43;;;9.40;77.40;;;;;;6098457;23;20006;-86
2023/02/10 01:39:42;;;;;;;13.20;9.40;;;9.40;77.50;;;;;;6099051;23;20029;-86
2023/02/10 01:42:13;;;;;;;13.15;9.35;;;9.30;77.40;;;;;;6098335;23;20397;-86
2023/02/10 01:44:38;;;;;;;12.95;9.10;;;9.40;77.40;;;;;;6124815;23;20337;-86
2023/02/10 01:47:05;;;;;;;13.02;9.75;;;9.40;77.40;;;;;;6097124;23;20006;-87
2023/02/10 01:49:34;;;;;;;12.90;9.50;;;9.40;77.40;;;;;;6120969;23;20663;-86
2023/02/10 01:52:05;;;;;;;12.38;9.30;;;9.40;77.50;;;;;;6121530;23;20013;-87
2023/02/10 01:54:48;;;;;;;12.07;9.07;;;9.40;77.50;;;;;;6120712;23;20448;-87
2023/02/10 01:57:15;;;;;;;13.15;9.30;;;9.40;77.50;;;;;;6095250;23;20089;-87
2023/02/10 01:59:42;;;;;;;12.15;9.45;;;9.40;77.50;;;;;;6095675;23;20072;-86
2023/02/10 02:02:08;;;;;;;13.43;8.90;;;9.30;77.50;;;;;;6095288;23;20348;-88
2023/02/10 02:04:42;;;;;;;11.82;8.98;;;9.40;77.50;;;;;;6096548;23;20118;-87
2023/02/10 02:07:08;;;;;;;12.05;9.00;;;9.40;77.50;;;;;;6095551;23;20494;-86
2023/02/10 02:09:33;;;;;;;12.38;9.10;;;9.40;77.60;;;;;;6096344;23;20041;-86
2023/02/10 02:12:21;;;;;;;12.63;8.88;;;9.30;77.50;;;;;;6122224;23;20036;-86
2023/02/10 02:14:59;;;;;;;11.70;8.90;;;9.40;77.50;;;;;;6121812;23;20006;-86
2023/02/10 02:17:48;;;;;;;12.95;9.25;;;9.40;77.50;;;;;;6094831;23;20025;-88
2023/02/10 02:20:41;;;;;;;13.10;9.32;;;9.40;78.10;;;;;;6100925;23;20002;-87
2023/02/10 02:23:48;;;;;;;12.18;8.68;;;9.40;77.60;;;;;;6098504;23;19998;-88
2023/02/10 02:26:41;;;;;;;12.23;9.13;;;9.40;77.60;;;;;;6124038;23;20456;-87
2023/02/10 02:29:34;;;;;;;12.93;9.60;;;9.40;77.60;;;;;;6097955;23;20006;-88
2023/02/10 02:32:05;;;;;;;11.95;9.05;;;9.40;77.60;;;;;;6122838;23;20006;-87
2023/02/10 02:34:43;;;;;;;12.50;9.25;;;9.40;77.60;;;;;;6097146;23;20005;-89
2023/02/10 02:37:20;;;;;;;12.52;9.30;;;9.40;77.60;;;;;;6095642;23;20085;-87
2023/02/10 02:39:49;;;;;;;12.82;9.63;;;9.40;77.60;;;;;;6122986;23;20009;-87
2023/02/10 02:42:18;;;;;;;14.45;9.82;;;9.40;77.60;;;;;;6097037;23;20006;-87
2023/02/10 02:44:57;;;;;;;12.77;9.85;;;9.40;77.60;;;;;;6097154;23;20085;-86
2023/02/10 02:47:47;;;;;;;12.82;9.63;;;9.40;77.60;;;;;;6122592;23;20390;-87
2023/02/10 02:50:36;;;;;;;13.57;9.73;;;9.40;77.50;;;;;;6123849;23;20001;-85
2023/02/10 02:53:25;;;;;;;12.35;9.23;;;9.40;77.60;;;;;;6099283;23;20063;-87
2023/02/10 02:56:00;;;;;;;12.55;9.63;;;9.40;78.10;;;;;;6097948;23;20017;-87
2023/02/10 02:58:31;;;;;;;13.98;9.77;;;9.40;77.60;;;;;;6097010;23;20010;-87
2023/02/10 03:01:04;;;;;;;13.77;9.57;;;9.40;77.60;;;;;;6097721;23;20500;-86
2023/02/10 03:03:33;;;;;;;11.85;8.80;;;9.40;77.70;;;;;;6096061;23;20002;-88
2023/02/10 03:06:00;;;;;;;12.82;9.00;;;9.40;77.60;;;;;;6093069;23;20012;-88
2023/02/10 03:08:27;;;;;;;13.38;9.50;;;9.30;77.60;;;;;;6097740;23;20010;-88
2023/02/10 03:10:53;;;;;;;13.88;10.05;;;9.40;77.70;;;;;;6123233;23;20356;-87
2023/02/10 03:13:18;;;;;;;13.93;9.98;;;9.30;77.60;;;;;;6098814;23;20012;-87
2023/02/10 03:15:44;;;;;;;12.90;9.27;;;9.30;77.60;;;;;;6122489;23;20005;-87
2023/02/10 03:18:09;;;;;;;13.20;9.63;;;9.40;77.70;;;;;;6095789;23;20088;-86
2023/02/10 03:20:35;;;;;;;14.02;9.70;;;9.40;77.70;;;;;;6096361;23;20010;-87
2023/02/10 03:23:00;;;;;;;13.40;9.68;;;9.40;77.70;;;;;;6096492;23;20006;-87
2023/02/10 03:25:26;;;;;;;13.40;9.73;;;9.30;77.60;;;;;;6098041;23;20429;-87
2023/02/10 03:27:51;;;;;;;14.13;9.82;;;9.30;77.60;;;;;;6097569;23;20002;-87
2023/02/10 03:30:17;;;;;;;13.20;9.73;;;9.40;77.70;;;;;;6096905;23;20001;-87
2023/02/10 03:32:42;;;;;;;12.93;9.63;;;9.30;77.60;;;;;;6095961;23;20013;-86
2023/02/10 03:35:08;;;;;;;12.40;9.10;;;9.40;77.70;;;;;;6096070;23;20006;-86
2023/02/10 03:37:33;;;;;;;13.70;9.38;;;9.30;77.70;;;;;;6096597;23;20448;-86
2023/02/10 03:39:59;;;;;;;12.75;9.23;;;9.30;77.70;;;;;;6123288;23;20009;-87
2023/02/10 03:42:24;;;;;;;12.90;9.15;;;9.30;77.80;;;;;;6097455;23;20205;-87
2023/02/10 03:44:49;;;;;;;14.00;9.98;;;9.30;77.70;;;;;;6096519;23;19994;-88
2023/02/10 03:47:15;;;;;;;13.68;10.25;;;9.30;77.70;;;;;;6095756;23;20336;-86
2023/02/10 03:49:41;;;;;;;12.98;9.57;;;9.40;77.80;;;;;;6122476;23;20064;-87
2023/02/10 03:52:06;;;;;;;13.20;9.43;;;9.30;77.70;;;;;;6095620;23;20085;-86
2023/02/10 03:54:32;;;;;;;14.75;10.05;;;9.30;77.80;;;;;;6096108;23;20447;-87
2023/02/10 03:56:57;;;;;;;15.02;10.45;;;9.30;77.80;;;;;;6122165;23;20206;-87
2023/02/10 03:59:22;;;;;;;13.70;9.95;;;9.30;77.80;;;;;;6122174;23;20010;-86
2023/02/10 04:01:48;;;;;;;14.02;9.52;;;9.40;77.80;;;;;;6121839;23;20002;-87
2023/02/10 04:04:13;;;;;;;14.00;10.00;;;9.30;77.80;;;;;;6120561;23;20026;-87
2023/02/10 04:06:39;;;;;;;13.20;9.30;;;9.30;77.80;;;;;;6095259;23;20010;-87
2023/02/10 04:09:04;;;;;;;12.43;9.40;;;9.30;77.90;;;;;;6097098;23;20479;-86
2023/02/10 04:11:30;;;;;;;13.57;9.85;;;9.30;77.90;;;;;;6124230;23;20009;-86
2023/02/10 04:13:55;;;;;;;13.85;9.93;;;9.30;77.80;;;;;;6097785;23;20002;-86
2023/02/10 04:16:27;;;;;;;13.57;9.52;;;9.30;77.80;;;;;;6098921;23;20389;-86
2023/02/10 04:18:52;;;;;;;13.35;9.70;;;9.30;78.00;;;;;;6099483;23;20221;-87
2023/02/10 04:21:18;;;;;;;13.80;10.20;;;9.30;77.90;;;;;;6100083;23;19998;-86
2023/02/10 04:23:43;;;;;;;13.38;9.80;;;9.30;77.80;;;;;;6099955;23;20425;-85
2023/02/10 04:26:09;;;;;;;14.63;10.20;;;9.30;77.90;;;;;;6125168;23;20072;-86
2023/02/10 04:28:34;;;;;;;13.68;10.00;;;9.30;77.80;;;;;;6098920;23;20156;-86
2023/02/10 04:31:00;;;;;;;13.00;9.52;;;9.30;78.00;;;;;;6099161;23;20010;-86
2023/02/10 04:33:26;;;;;;;13.68;9.57;;;9.30;77.90;;;;;;6098462;23;20693;-86
2023/02/10 04:35:53;;;;;;;12.82;9.50;;;9.30;77.90;;;;;;6097886;23;20006;-86
2023/02/10 04:38:18;;;;;;;14.00;9.82;;;9.30;77.90;;;;;;6096305;23;20464;-86
2023/02/10 04:40:44;;;;;;;13.10;9.50;;;9.30;77.90;;;;;;6097239;23;20006;-86
2023/02/10 04:43:11;;;;;;;15.27;10.20;;;9.30;77.90;;;;;;6097401;23;20002;-87
2023/02/10 04:45:37;;;;;;;13.93;9.80;;;9.40;78.00;;;;;;6097596;23;20349;-86
2023/02/10 04:48:03;;;;;;;14.35;10.10;;;9.30;77.90;;;;;;6098029;23;20092;-86
2023/02/10 04:50:29;;;;;;;13.73;9.68;;;9.30;77.90;;;;;;6226541;23;20497;-86
2023/02/10 04:52:55;;;;;;;14.45;10.27;;;9.30;77.90;;;;;;6122620;23;20055;-86
2023/02/10 04:55:20;;;;;;;13.30;9.52;;;9.30;78.00;;;;;;6120985;23;20021;-87
2023/02/10 04:57:46;;;;;;;13.65;10.07;;;9.30;77.90;;;;;;6095277;23;20088;-87
2023/02/10 05:00:12;;;;;;;12.77;9.68;;;9.30;77.90;;;;;;6096425;23;20006;-86
2023/02/10 05:02:37;;;;;;;14.13;9.50;;;9.30;77.90;;;;;;6122456;23;19998;-86
2023/02/10 05:05:03;;;;;;;15.45;10.65;;;9.30;77.90;;;;;;6122017;23;20040;-86
2023/02/10 05:07:29;;;;;;;14.93;10.48;;;9.30;77.90;;;;;;6097291;23;20038;-83
2023/02/10 05:09:54;;;;;;;14.20;10.27;;;9.30;77.90;;;;;;6099355;23;20002;-83
2023/02/10 05:12:20;;;;;;;14.95;11.13;;;9.30;77.90;;;;;;6227503;23;20009;-84
2023/02/10 05:14:45;;;;;;;13.55;10.02;;;9.30;77.90;;;;;;6099149;23;20010;-84
2023/02/10 05:17:11;;;;;;;13.77;9.93;;;9.30;78.00;;;;;;6227013;23;20002;-83
2023/02/10 05:19:37;;;;;;;14.70;10.77;;;9.30;78.00;;;;;;6098699;23;20059;-83
2023/02/10 05:22:02;;;;;;;14.25;10.85;;;9.30;78.10;;;;;;6126446;23;20085;-84
2023/02/10 05:24:28;;;;;;;15.25;10.23;;;9.30;78.00;;;;;;6226590;23;20502;-83
2023/02/10 05:26:56;;;;;;;15.32;11.05;;;9.30;78.00;;;;;;6091871;23;20014;-83
2023/02/10 05:29:24;;;;;;;14.98;10.63;;;9.40;78.00;;;;;;6094875;23;20482;-83
2023/02/10 05:31:50;;;;;;;14.05;10.88;;;9.30;78.00;;;;;;6095586;23;20006;-81
2023/02/10 05:34:15;;;;;;;15.75;11.23;;;9.30;78.00;;;;;;6095628;23;20404;-81
2023/02/10 05:40:01;;;;;;;15.07;11.32;;;9.30;78.00;;;;;;6131531;23;20041;-81
2023/02/10 05:42:41;;;;;;;15.40;10.93;;;9.30;78.00;;;;;;6128167;23;20211;-82
2023/02/10 05:45:53;;;;;;;16.15;11.23;;;9.70;78.20;;;;;;6096598;23;20029;-81
2023/02/10 05:51:49;;;;;;;;;;;9.30;78.10;;;;;;6134924;23;20036;-81
2023/02/10 05:54:14;;;;;;;16.17;11.27;;;9.30;78.00;;;;;;6094776;23;19901;-83
2023/02/10 05:56:40;;;;;;;13.88;10.25;;;9.50;78.00;;;;;;6096585;23;20024;-83
2023/02/10 05:59:06;;;;;;;16.00;11.45;;;9.30;78.00;;;;;;6096100;23;20010;-80
2023/02/10 06:01:32;;;;;;;16.60;11.70;;;9.30;78.10;;;;;;6121697;23;20032;-84
2023/02/10 06:03:58;;;;;;;14.55;11.05;;;9.30;78.00;;;;;;6118290;23;20006;-79
2023/02/10 06:06:24;;;;;;;14.98;10.70;;;9.30;78.10;;;;;;6094673;23;20383;-80
2023/02/10 06:08:49;;;;;;;15.27;11.43;;;9.30;78.10;;;;;;6096689;23;20390;-80
2023/02/10 06:11:15;;;;;;;16.23;10.93;;;9.30;78.10;;;;;;6095466;23;19998;-80
2023/02/10 06:13:41;;;;;;;15.65;10.90;;;9.30;78.10;;;;;;6120165;23;20336;-81
2023/02/10 06:16:08;;;;;;;15.75;11.25;;;9.30;78.10;;;;;;6093800;23;20002;-79
2023/02/10 06:18:34;;;;;;;18.67;12.55;;;9.30;78.10;;;;;;6093335;23;20013;-79
2023/02/10 06:20:59;;;;;;;37.47;20.15;;;9.30;77.90;;;;;;6094719;23;20384;-78
2023/02/10 06:23:25;;;;;;;31.80;19.15;;;9.30;75.80;;;;;;6095431;23;20010;-80
2023/02/10 06:25:54;;;;;;;29.60;19.67;;;9.30;75.10;;;;;;6122219;23;20440;-80
2023/02/10 06:28:27;;;;;;;30.23;18.60;;;9.30;74.90;;;;;;6095432;23;20010;-82
2023/02/10 06:31:00;;;;;;;23.88;16.38;;;9.30;75.90;;;;;;6122520;23;20006;-79
2023/02/10 06:33:26;;;;;;;24.13;15.77;;;9.30;76.40;;;;;;6092890;23;20006;-78
2023/02/10 06:35:51;;;;;;;21.92;15.93;;;9.30;76.70;;;;;;6118999;23;20081;-83
2023/02/10 06:38:17;;;;;;;22.88;15.50;;;9.30;77.00;;;;;;6090308;23;20014;-79
2023/02/10 06:40:43;;;;;;;23.55;15.55;;;9.90;77.60;;;;;;6088827;23;20097;-79
2023/02/10 06:43:09;;;;;;;21.33;15.32;;;9.30;77.30;;;;;;6116922;23;19998;-80
2023/02/10 06:45:34;;;;;;;20.77;14.98;;;9.30;77.30;;;;;;6090146;23;20006;-80
2023/02/10 06:56:45;;;;;;;19.38;14.40;;;9.20;77.50;;;;;;6112857;23;20006;-79
2023/02/10 06:59:19;;;;;;;22.73;14.90;;;9.30;77.70;;;;;;6083846;23;20003;-79
2023/02/10 07:05:23;;;;;;;20.20;14.27;;;9.30;77.80;;;;;;6055817;23;20496;-83
2023/02/10 07:08:03;;;;;;;20.80;14.43;;;10.60;78.40;;;;;;6061119;23;20045;-83
2023/02/10 07:14:14;;;;;;;19.23;14.23;;;9.30;77.90;;;;;;6142378;23;20013;-79
2023/02/10 07:16:40;;;;;;;22.50;15.10;;;9.30;77.90;;;;;;6144327;23;20063;-78
2023/02/10 07:19:05;;;;;;;19.88;13.82;;;9.30;77.90;;;;;;6114733;23;20675;-78
2023/02/10 07:21:31;;;;;;;19.60;13.98;;;9.30;77.90;;;;;;6084698;23;20362;-78
2023/02/10 07:23:57;;;;;;;20.48;14.50;;;9.30;78.00;;;;;;6061311;23;19998;-80
2023/02/10 07:26:23;;;;;;;20.38;14.77;;;9.30;78.00;;;;;;6057703;23;20089;-77
2023/02/10 07:28:48;;;;;;;19.00;14.23;;;9.30;78.00;;;;;;6083648;23;20341;-80
2023/02/10 07:31:14;;;;;;;18.73;14.50;;;9.30;78.00;;;;;;6058382;23;20007;-79
2023/02/10 07:33:40;;;;;;;21.05;14.40;;;9.30;78.00;;;;;;6058557;23;20006;-77
2023/02/10 07:36:06;;;;;;;21.27;15.02;;;9.30;78.10;;;;;;6057531;23;20002;-76
2023/02/10 07:38:32;;;;;;;19.40;13.48;;;9.20;78.00;;;;;;6058198;23;20258;-77
2023/02/10 07:40:58;;;;;;;19.00;13.98;;;9.30;78.00;;;;;;6083371;23;20010;-77
2023/02/10 07:43:24;;;;;;;21.42;14.27;;;9.30;78.00;;;;;;6058509;23;20042;-78
2023/02/10 07:45:52;;;;;;;19.02;13.95;;;9.30;78.10;;;;;;6057282;23;20349;-80
2023/02/10 07:48:18;;;;;;;19.02;14.27;;;9.20;78.00;;;;;;6084341;23;20007;-79
2023/02/10 07:50:46;;;;;;;19.73;13.93;;;9.20;78.10;;;;;;6085663;23;20042;-78
2023/02/10 07:53:11;;;;;;;19.13;14.48;;;9.20;78.10;;;;;;6083910;23;20451;-77
2023/02/10 07:55:37;;;;;;;20.30;13.90;;;9.30;78.10;;;;;;6052959;23;20034;-79
2023/02/10 07:58:03;;;;;;;21.15;14.52;;;9.30;78.20;;;;;;6084000;23;20014;-76
2023/02/10 08:00:29;;;;;;;18.80;13.57;;;9.30;78.20;;;;;;6085809;23;20068;-76
2023/02/10 08:02:54;;;;;;;18.75;13.35;;;9.30;78.20;;;;;;6058289;23;20388;-78
2023/02/10 08:05:21;;;;;;;19.40;14.18;;;9.30;78.20;;;;;;6062278;23;20483;-78
2023/02/10 08:07:46;;;;;;;19.00;13.70;;;9.30;78.10;;;;;;6067355;23;20010;-80
2023/02/10 08:10:12;;;;;;;19.45;13.57;;;9.30;78.20;;;;;;6072194;23;20078;-80
2023/02/10 08:12:37;;;;;;;19.92;14.05;;;9.30;78.20;;;;;;6079389;23;20030;-79
2023/02/10 08:15:04;;;;;;;18.63;13.50;;;9.30;78.20;;;;;;6070071;23;20459;-80
2023/02/10 08:17:29;;;;;;;20.40;14.00;;;9.30;78.20;;;;;;6069532;23;20014;-79
2023/02/10 08:19:54;;;;;;;19.55;14.35;;;9.30;78.30;;;;;;6068884;23;20081;-80
2023/02/10 08:22:20;;;;;;;20.77;14.27;;;9.30;78.20;;;;;;6069179;23;20029;-79
2023/02/10 08:24:45;;;;;;;20.23;13.90;;;9.30;78.20;;;;;;6068860;23;20013;-79
2023/02/10 08:27:11;;;;;;;19.83;13.88;;;9.20;78.20;;;;;;6093544;23;20007;-79
2023/02/10 08:29:36;;;;;;;19.95;14.13;;;9.20;78.20;;;;;;6094370;23;20014;-79
2023/02/10 08:32:02;;;;;;;18.58;13.75;;;9.30;78.30;;;;;;6094692;23;20020;-80
2023/02/10 08:34:28;;;;;;;20.00;14.60;;;9.30;78.30;;;;;;6068704;23;20014;-80
2023/02/10 08:36:53;;;;;;;22.38;15.00;;;9.30;78.30;;;;;;6093617;23;20006;-80
2023/02/10 08:39:19;;;;;;;19.23;13.63;;;9.30;78.30;;;;;;6093967;23;20433;-81
2023/02/10 08:41:45;;;;;;;20.83;14.65;;;9.20;78.20;;;;;;6091764;23;20003;-80
2023/02/10 08:44:12;;;;;;;20.38;14.15;;;9.20;78.30;;;;;;6091977;23;19998;-79
2023/02/10 08:46:38;;;;;;;20.58;14.60;;;9.20;78.30;;;;;;6067881;23;20002;-79
2023/02/10 08:49:03;;;;;;;19.95;14.18;;;9.20;78.30;;;;;;6092373;23;20011;-79
2023/02/10 08:51:30;;;;;;;20.52;14.65;;;9.20;78.30;;;;;;6096569;23;20329;-80
2023/02/10 08:53:56;;;;;;;20.88;14.30;;;9.20;78.30;;;;;;6093818;23;20012;-79
2023/02/10 08:56:22;;;;;;;19.70;13.88;;;9.20;78.30;;;;;;6100696;23;20022;-80
2023/02/10 08:58:48;;;;;;;19.25;14.18;;;9.20;78.30;;;;;;6103176;23;20006;-79
2023/02/10 09:01:17;;;;;;;19.52;13.95;;;9.20;78.30;;;;;;6077183;23;20017;-81
2023/02/10 09:03:42;;;;;;;19.63;14.45;;;9.30;78.30;;;;;;6106940;23;20018;-80
2023/02/10 09:06:18;;;;;;;19.85;14.02;;;9.20;78.30;;;;;;6102736;23;20010;-80
2023/02/10 09:08:46;;;;;;;19.40;14.20;;;9.20;78.30;;;;;;6100789;23;20041;-81
2023/02/10 09:11:11;;;;;;;18.85;14.30;;;9.20;78.30;;;;;;6075575;23;20346;-80
2023/02/10 09:13:37;;;;;;;20.42;14.35;;;9.20;78.40;;;;;;6099602;23;20006;-79
2023/02/10 09:16:02;;;;;;;19.08;13.68;;;9.20;78.40;;;;;;6074169;23;20015;-79
2023/02/10 09:18:28;;;;;;;20.92;14.80;;;9.20;78.40;;;;;;6073738;23;20253;-79
2023/02/10 09:20:53;;;;;;;20.20;14.25;;;9.30;78.40;;;;;;6074184;23;20372;-81
2023/02/10 09:23:18;;;;;;;20.73;14.45;;;9.20;78.40;;;;;;6100312;23;19998;-79
2023/02/10 09:25:56;;;;;;;20.92;14.70;;;9.20;78.40;;;;;;6073364;23;20272;-80
2023/02/10 09:28:22;;;;;;;19.40;14.35;;;9.20;78.30;;;;;;6073370;23;20006;-80
2023/02/10 09:30:47;;;;;;;20.85;14.68;;;9.20;78.40;;;;;;6074042;23;20093;-80
2023/02/10 09:33:13;;;;;;;20.00;13.93;;;9.20;78.40;;;;;;6098998;23;20029;-80
2023/02/10 09:35:40;;;;;;;19.75;14.80;;;9.30;78.40;;;;;;6099224;23;20015;-80
2023/02/10 09:38:06;;;;;;;21.38;14.52;;;9.20;78.30;;;;;;6097155;23;20014;-79
2023/02/10 09:40:35;;;;;;;19.70;14.65;;;9.30;78.40;;;;;;6099376;23;20020;-79
2023/02/10 09:43:25;;;;;;;20.55;14.27;;;9.20;78.30;;;;;;6096469;23;20081;-80
2023/02/10 09:46:00;;;;;;;20.42;14.43;;;9.30;78.40;;;;;;6104421;23;19999;-80
2023/02/10 09:48:55;;;;;;;20.27;14.70;;;9.20;78.40;;;;;;6103827;23;20006;-80
2023/02/10 09:51:55;;;;;;;19.92;14.18;;;9.20;78.40;;;;;;6101907;23;20357;-79
2023/02/10 09:54:22;;;;;;;20.10;14.32;;;9.30;78.40;;;;;;6166161;23;20044;-80
2023/02/10 09:56:48;;;;;;;20.08;14.25;;;9.20;78.40;;;;;;6076560;23;20007;-79
2023/02/10 09:59:19;;;;;;;22.35;14.48;;;9.30;78.40;;;;;;6103057;23;20363;-81
2023/02/10 10:01:50;;;;;;;20.95;14.60;;;9.20;78.30;;;;;;6101555;23;20002;-80
2023/02/10 10:04:17;;;;;;;;;;;9.30;78.40;;;;;;6076314;23;20045;-79
2023/02/10 10:06:44;;;;;;;19.27;13.82;;;9.30;78.40;;;;;;6073808;23;19902;-79
2023/02/10 10:09:10;;;;;;;21.17;14.48;;;9.20;78.40;;;;;;6100250;23;20006;-79
2023/02/10 10:11:50;;;;;;;21.30;14.73;;;9.30;78.50;;;;;;6100237;23;20456;-82
2023/02/10 10:14:25;;;;;;;20.90;14.40;;;9.20;78.50;;;;;;6099727;23;20378;-80
2023/02/10 10:16:59;;;;;;;21.95;15.50;;;9.30;78.50;;;;;;6073322;23;20013;-80
2023/02/10 10:19:58;;;;;;;21.20;14.65;;;9.20;78.40;;;;;;6099283;23;20444;-81
2023/02/10 10:22:32;;;;;;;21.77;14.93;;;9.30;78.40;;;;;;6099984;23;20007;-80
2023/02/10 10:25:20;;;;;;;20.30;14.73;;;9.30;78.30;;;;;;6098725;23;20007;-80
2023/02/10 10:28:23;;;;;;;21.00;14.65;;;9.30;78.20;;;;;;6096958;23;20066;-80
2023/02/10 10:31:04;;;;;;;20.92;14.55;;;9.40;78.10;;;;;;6096961;23;20007;-80
2023/02/10 10:33:40;;;;;;;19.92;13.55;;;9.40;78.00;;;;;;6097692;23;20429;-81
2023/02/10 10:36:10;;;;;;;22.08;15.27;;;9.40;78.50;;;;;;6097224;23;20009;-80
2023/02/10 10:38:41;;;;;;;21.73;15.07;;;9.40;78.10;;;;;;6097558;23;20017;-80
2023/02/10 10:41:16;;;;;;;20.47;14.57;;;9.40;78.10;;;;;;6097636;23;20044;-80
2023/02/10 10:43:45;;;;;;;20.83;14.35;;;9.40;78.00;;;;;;6097098;23;20227;-79
2023/02/10 10:46:16;;;;;;;21.00;14.70;;;9.40;78.10;;;;;;6097929;23;20342;-81
2023/02/10 10:48:43;;;;;;;21.05;15.48;;;9.40;78.10;;;;;;6095337;23;20034;-79
2023/02/10 10:51:10;;;;;;;20.60;14.32;;;9.40;78.10;;;;;;6098284;23;20002;-80
2023/02/10 10:53:47;;;;;;;20.75;14.95;;;9.40;78.10;;;;;;6098285;23;20014;-80
2023/02/10 10:56:17;;;;;;;21.17;15.10;;;9.40;78.20;;;;;;6072015;23;20357;-80
2023/02/10 10:58:44;;;;;;;22.77;15.88;;;9.40;78.20;;;;;;6097331;23;20006;-79
2023/02/10 11:01:13;;;;;;;21.88;15.77;;;9.40;78.20;;;;;;6099350;23;20028;-80
2023/02/10 11:03:39;;;;;;;20.42;14.90;;;9.40;78.30;;;;;;6071213;23;20475;-80
2023/02/10 11:06:11;;;;;;;23.50;15.88;;;9.40;78.20;;;;;;6097183;23;20007;-80
2023/02/10 11:08:45;;;;;;;23.13;15.13;;;9.40;78.20;;;;;;6078719;23;20010;-79
2023/02/10 11:11:16;;;;;;;21.40;15.57;;;9.40;78.20;;;;;;6095614;23;20354;-80
2023/02/10 11:13:50;;;;;;;21.40;14.80;;;9.40;78.20;;;;;;6068995;23;20006;-79
2023/02/10 11:16:18;;;;;;;21.10;14.95;;;9.40;78.10;;;;;;6095550;23;20241;-80
2023/02/10 11:18:58;;;;;;;22.40;15.70;;;9.50;78.10;;;;;;6069116;23;20090;-80
2023/02/10 11:21:36;;;;;;;22.37;15.40;;;9.50;78.00;;;;;;6069700;23;20040;-79
2023/02/10 11:24:02;;;;;;;21.30;15.30;;;9.50;77.90;;;;;;6070376;23;20330;-80
2023/02/10 11:26:28;;;;;;;23.00;15.30;;;9.50;77.80;;;;;;6069835;23;20014;-80
2023/02/10 11:28:54;;;;;;;19.92;14.40;;;9.60;77.70;;;;;;6096468;23;20037;-80
2023/02/10 11:31:31;;;;;;;21.25;15.13;;;9.60;77.60;;;;;;6097241;23;20030;-81
2023/02/10 11:34:34;;;;;;;20.60;14.68;;;9.60;77.40;;;;;;6096230;23;20006;-80
2023/02/10 11:37:10;;;;;;;21.52;15.38;;;9.70;77.20;;;;;;6067911;23;20509;-80
2023/02/10 11:39:42;;;;;;;21.50;14.63;;;9.80;77.00;;;;;;6094029;23;20038;-80
2023/02/10 11:42:23;;;;;;;20.42;14.32;;;9.80;76.80;;;;;;6068132;23;20030;-79
2023/02/10 11:44:53;;;;;;;;;;;9.90;76.60;;;;;;6069052;23;20010;-80
2023/02/10 11:47:19;;;;;;;21.65;14.15;;;9.90;76.50;;;;;;6094015;23;19902;-80
2023/02/10 11:49:49;;;;;;;21.55;14.38;;;9.90;76.50;;;;;;6094624;23;20011;-80
2023/02/10 11:52:16;;;;;;;21.42;15.25;;;9.90;76.40;;;;;;6093960;23;20404;-80
2023/02/10 11:54:42;;;;;;;22.05;14.57;;;10.00;76.40;;;;;;6093560;23;20038;-80
2023/02/10 12:00:14;;;;;;;20.90;14.65;;;10.00;76.10;;;;;;6094657;23;20072;-80
2023/02/10 12:03:13;;;;;;;21.55;14.05;;;10.00;76.00;;;;;;6067804;23;20069;-81
2023/02/10 12:06:12;;;;;;;19.83;13.82;;;10.10;76.00;;;;;;6094717;23;20073;-79
2023/02/10 12:09:01;;;;;;;20.02;13.68;;;10.10;76.00;;;;;;6070331;23;20010;-79
2023/02/10 12:11:44;;;;;;;19.17;13.30;;;10.10;75.90;;;;;;6096670;23;20010;-79
2023/02/10 12:14:49;;;;;;;20.38;14.32;;;10.10;75.90;;;;;;6098243;23;20010;-80
2023/02/10 12:17:32;;;;;;;20.23;13.40;;;10.10;75.80;;;;;;6094608;23;20010;-81
2023/02/10 12:20:11;;;;;;;17.75;13.02;;;10.20;75.80;;;;;;6101075;23;20006;-79
2023/02/10 12:23:15;;;;;;;18.80;13.20;;;10.20;75.70;;;;;;6101542;23;20003;-80
2023/02/10 12:26:00;;;;;;;20.05;13.68;;;10.20;75.60;;;;;;6074715;23;20014;-80
2023/02/10 12:28:46;;;;;;;19.15;13.93;;;10.30;75.60;;;;;;6100498;23;20002;-80
2023/02/10 12:31:34;;;;;;;20.20;14.00;;;10.30;75.40;;;;;;6099255;23;20007;-81
2023/02/10 12:34:34;;;;;;;18.50;13.73;;;10.30;75.40;;;;;;6100756;23;20011;-79
2023/02/10 12:37:20;;;;;;;19.70;13.95;;;10.30;75.40;;;;;;6074784;23;20029;-80
2023/02/10 12:40:13;;;;;;;21.08;14.05;;;10.30;75.30;;;;;;6098715;23;20006;-80
2023/02/10 12:43:06;;;;;;;19.88;14.20;;;10.30;75.30;;;;;;6074953;23;20014;-79
2023/02/10 12:46:07;;;;;;;17.05;12.55;;;10.30;75.40;;;;;;6099219;23;20480;-79
2023/02/10 12:48:55;;;;;;;20.42;14.45;;;10.30;75.50;;;;;;6100471;23;20011;-79
2023/02/10 12:51:30;;;;;;;18.80;13.43;;;10.30;75.60;;;;;;6097948;23;20006;-80
2023/02/10 12:54:13;;;;;;;18.85;13.13;;;10.30;75.70;;;;;;6176670;23;20055;-81
2023/02/10 12:56:49;;;;;;;18.38;13.70;;;10.30;75.80;;;;;;6222060;23;20079;-80
2023/02/10 12:59:19;;;;;;;17.38;13.10;;;10.30;75.80;;;;;;6221524;23;20004;-80
2023/02/10 13:01:51;;;;;;;19.55;13.07;;;10.30;75.90;;;;;;6219592;23;20008;-80
2023/02/10 13:04:27;;;;;;;18.27;13.15;;;10.30;76.00;;;;;;6222702;23;20005;-81
2023/02/10 13:07:25;;;;;;;19.33;14.07;;;10.20;75.90;;;;;;6225681;23;20031;-80
2023/02/10 13:09:59;;;;;;;19.77;13.93;;;10.20;76.00;;;;;;6225730;23;20024;-80
2023/02/10 13:12:35;;;;;;;19.30;13.23;;;10.20;76.00;;;;;;6252995;23;20066;-80
2023/02/10 13:15:25;;;;;;;18.70;12.95;;;10.20;76.00;;;;;;6224493;23;20016;-81
2023/02/10 13:17:52;;;;;;;19.45;13.07;;;10.20;76.10;;;;;;6248061;22;20012;-80
2023/02/10 13:20:44;;;;;;;18.58;12.60;;;10.20;76.20;;;;;;6247063;23;20432;-80
2023/02/10 13:23:30;;;;;;;19.15;13.50;;;10.20;76.30;;;;;;6223946;23;20000;-80
2023/02/10 13:26:43;;;;;;;18.45;12.90;;;10.20;76.40;;;;;;6222710;23;20000;-80